createdAt,value
2023-02-15T00:01:09.594Z,1.60
2023-02-15T00:03:38.310Z,1.70
2023-02-15T00:06:07.404Z,1.70
2023-02-15T00:08:35.765Z,1.70
2023-02-15T00:11:08.411Z,1.70
2023-02-15T00:13:39.420Z,1.70
2023-02-15T00:16:11.320Z,1.70
2023-02-15T00:18:40.038Z,1.70
2023-02-15T00:21:10.222Z,1.60
2023-02-15T00:23:38.754Z,1.60
2023-02-15T00:26:08.757Z,1.60
2023-02-15T00:28:36.992Z,1.60
2023-02-15T00:31:07.507Z,1.60
2023-02-15T00:33:39.391Z,1.60
2023-02-15T00:36:09.928Z,1.60
2023-02-15T00:38:38.661Z,1.50
2023-02-15T00:41:08.635Z,1.50
2023-02-15T00:43:38.047Z,1.50
2023-02-15T00:46:07.230Z,1.50
2023-02-15T00:48:35.553Z,1.50
2023-02-15T00:51:05.271Z,1.50
2023-02-15T00:53:33.642Z,1.50
2023-02-15T00:56:02.472Z,1.50
2023-02-15T00:58:31.091Z,1.40
2023-02-15T01:01:05.495Z,1.40
2023-02-15T01:03:34.427Z,1.40
2023-02-15T01:06:06.135Z,1.30
2023-02-15T01:08:34.458Z,1.30
2023-02-15T01:11:06.368Z,1.30
2023-02-15T01:13:34.860Z,1.30
2023-02-15T01:16:03.932Z,1.30
2023-02-15T01:18:32.420Z,1.20
2023-02-15T01:21:00.775Z,1.30
2023-02-15T01:23:30.414Z,1.30
2023-02-15T01:26:03.327Z,1.20
2023-02-15T01:28:31.908Z,1.20
2023-02-15T01:31:00.438Z,1.20
2023-02-15T01:33:28.788Z,1.20
2023-02-15T01:36:00.921Z,1.20
2023-02-15T01:38:30.636Z,1.30
2023-02-15T01:41:19.742Z,1.30
2023-02-15T01:43:50.271Z,1.30
2023-02-15T01:46:24.715Z,1.30
2023-02-15T01:48:57.024Z,1.30
2023-02-15T01:51:29.738Z,1.30
2023-02-15T01:54:04.584Z,1.30
2023-02-15T01:56:36.820Z,1.30
2023-02-15T01:59:10.237Z,1.30
2023-02-15T02:01:40.033Z,1.30
2023-02-15T02:04:15.483Z,1.20
2023-02-15T02:06:43.769Z,1.30
2023-02-15T02:09:13.720Z,1.30
2023-02-15T02:11:46.595Z,1.30
2023-02-15T02:14:15.150Z,1.20
2023-02-15T02:16:52.399Z,1.20
2023-02-15T02:19:46.306Z,1.30
2023-02-15T02:22:42.442Z,1.20
2023-02-15T02:25:50.613Z,1.20
2023-02-15T02:28:39.451Z,1.20
2023-02-15T02:31:33.520Z,1.20
2023-02-15T02:34:12.677Z,1.20
2023-02-15T02:36:47.127Z,1.20
2023-02-15T02:39:25.692Z,1.10
2023-02-15T02:42:04.197Z,1.20
2023-02-15T02:44:43.976Z,1.20
2023-02-15T02:47:15.686Z,1.10
2023-02-15T02:49:45.861Z,1.20
2023-02-15T02:52:37.222Z,1.20
2023-02-15T02:55:08.708Z,1.20
2023-02-15T02:57:43.118Z,1.20
2023-02-15T03:00:13.298Z,1.20
2023-02-15T03:02:46.898Z,1.20
2023-02-15T03:05:21.036Z,1.20
2023-02-15T03:07:52.643Z,1.20
2023-02-15T03:10:24.049Z,1.20
2023-02-15T03:12:53.994Z,1.20
2023-02-15T03:15:25.236Z,1.20
2023-02-15T03:17:57.737Z,1.20
2023-02-15T03:20:32.576Z,1.20
2023-02-15T03:23:05.825Z,1.10
2023-02-15T03:25:38.298Z,1.10
2023-02-15T03:28:10.738Z,1.00
2023-02-15T03:30:41.484Z,1.00
2023-02-15T03:33:11.021Z,1.00
2023-02-15T03:35:47.662Z,1.00
2023-02-15T03:38:22.488Z,1.00
2023-02-15T03:41:09.662Z,1.00
2023-02-15T03:43:50.153Z,1.00
2023-02-15T03:46:23.637Z,1.00
2023-02-15T03:48:55.669Z,1.00
2023-02-15T03:51:35.937Z,1.00
2023-02-15T03:54:06.959Z,1.00
2023-02-15T03:56:37.594Z,1.00
2023-02-15T03:59:24.076Z,1.00
2023-02-15T04:02:06.989Z,1.00
2023-02-15T04:04:37.876Z,1.00
2023-02-15T04:07:09.327Z,1.00
2023-02-15T04:09:55.494Z,1.00
2023-02-15T04:12:23.757Z,1.10
2023-02-15T04:15:09.374Z,1.10
2023-02-15T04:17:38.270Z,1.10
2023-02-15T04:20:25.389Z,1.10
2023-02-15T04:23:12.488Z,1.10
2023-02-15T04:25:40.829Z,1.20
2023-02-15T04:28:09.432Z,1.20
2023-02-15T04:30:37.748Z,1.20
2023-02-15T04:33:06.175Z,1.20
2023-02-15T04:35:34.576Z,1.10
2023-02-15T04:38:04.271Z,1.10
2023-02-15T04:40:32.562Z,1.10
2023-02-15T04:43:00.735Z,1.10
2023-02-15T04:45:29.069Z,1.10
2023-02-15T04:47:57.522Z,1.20
2023-02-15T04:50:26.013Z,1.20
2023-02-15T04:52:54.258Z,1.20
2023-02-15T04:55:23.823Z,1.20
2023-02-15T04:57:52.128Z,1.20
2023-02-15T05:00:20.872Z,1.20
2023-02-15T05:02:48.975Z,1.20
2023-02-15T05:05:17.271Z,1.20
2023-02-15T05:07:45.442Z,1.30
2023-02-15T05:10:13.918Z,1.30
2023-02-15T05:12:43.444Z,1.30
2023-02-15T05:15:12.110Z,1.30
2023-02-15T05:17:40.429Z,1.30
2023-02-15T05:20:09.425Z,1.30
2023-02-15T05:22:37.606Z,1.30
2023-02-15T05:25:23.224Z,1.30
2023-02-15T05:28:10.360Z,1.20
2023-02-15T05:30:40.802Z,1.20
2023-02-15T05:33:09.504Z,1.10
2023-02-15T05:35:37.762Z,1.10
2023-02-15T05:38:05.985Z,1.10
2023-02-15T05:40:34.330Z,1.10
2023-02-15T05:43:03.940Z,1.10
2023-02-15T05:45:32.374Z,1.10
2023-02-15T05:48:00.532Z,1.00
2023-02-15T05:50:29.084Z,1.00
2023-02-15T05:53:00.153Z,0.90
2023-02-15T05:55:28.465Z,0.80
2023-02-15T05:57:56.624Z,0.80
2023-02-15T06:00:26.329Z,0.80
2023-02-15T06:02:54.483Z,0.70
2023-02-15T06:05:22.674Z,0.70
2023-02-15T06:07:50.824Z,0.70
2023-02-15T06:10:19.141Z,0.70
2023-02-15T06:12:47.277Z,0.60
2023-02-15T06:15:15.964Z,0.60
2023-02-15T06:17:45.861Z,0.60
2023-02-15T06:20:14.853Z,0.60
2023-02-15T06:22:42.989Z,0.60
2023-02-15T06:25:12.256Z,0.50
2023-02-15T06:27:43.686Z,0.50
2023-02-15T06:30:13.889Z,0.50
2023-02-15T06:32:42.380Z,0.50
2023-02-15T06:35:12.547Z,0.50
2023-02-15T06:37:41.169Z,0.50
2023-02-15T06:40:10.650Z,0.50
2023-02-15T06:42:38.869Z,0.50
2023-02-15T06:45:08.464Z,0.50
2023-02-15T06:47:36.780Z,0.50
2023-02-15T06:50:05.518Z,0.50
2023-02-15T06:52:35.140Z,0.60
2023-02-15T06:55:03.721Z,0.60
2023-02-15T06:57:33.314Z,0.60
2023-02-15T07:00:02.180Z,0.50
2023-02-15T07:02:30.732Z,0.60
2023-02-15T07:04:59.081Z,0.50
2023-02-15T07:07:27.530Z,0.60
2023-02-15T07:09:57.062Z,0.50
2023-02-15T07:12:44.851Z,0.50
2023-02-15T07:15:14.656Z,0.50
2023-02-15T07:17:42.964Z,0.50
2023-02-15T07:20:13.669Z,0.50
2023-02-15T07:22:41.783Z,0.40
2023-02-15T07:25:12.988Z,0.40
2023-02-15T07:27:41.792Z,0.40
2023-02-15T07:30:12.105Z,0.40
2023-02-15T07:33:00.630Z,0.40
2023-02-15T07:35:29.332Z,0.40
2023-02-15T07:37:57.761Z,0.40
2023-02-15T07:40:27.278Z,0.50
2023-02-15T07:42:55.896Z,0.60
2023-02-15T07:45:24.599Z,0.50
2023-02-15T07:47:52.807Z,0.60
2023-02-15T07:50:21.000Z,0.60
2023-02-15T07:52:49.271Z,0.70
2023-02-15T07:55:17.510Z,0.70
2023-02-15T07:57:49.525Z,0.70
2023-02-15T08:00:21.147Z,0.70
2023-02-15T08:03:10.501Z,0.80
2023-02-15T08:05:39.523Z,0.90
2023-02-15T08:08:08.100Z,0.90
2023-02-15T08:11:03.514Z,1.00
2023-02-15T08:13:33.150Z,1.00
2023-02-15T08:16:01.962Z,1.10
2023-02-15T08:18:30.473Z,1.10
2023-02-15T08:20:58.890Z,1.10
2023-02-15T08:23:27.342Z,1.10
2023-02-15T08:25:55.620Z,1.10
2023-02-15T08:28:23.775Z,1.00
2023-02-15T08:30:53.734Z,1.10
2023-02-15T08:33:22.254Z,1.10
2023-02-15T08:35:50.653Z,1.10
2023-02-15T08:38:19.128Z,1.20
2023-02-15T08:40:47.415Z,1.20
2023-02-15T08:43:15.750Z,1.20
2023-02-15T08:45:44.177Z,1.30
2023-02-15T08:48:13.932Z,1.30
2023-02-15T08:50:42.269Z,1.40
2023-02-15T08:53:10.577Z,1.40
2023-02-15T08:55:40.840Z,1.60
2023-02-15T08:58:09.169Z,1.70
2023-02-15T09:00:37.467Z,1.80
2023-02-15T09:03:06.253Z,1.90
2023-02-15T09:05:35.925Z,2.00
2023-02-15T09:08:04.309Z,2.00
2023-02-15T09:10:32.426Z,2.10
2023-02-15T09:13:00.600Z,2.10
2023-02-15T09:15:28.828Z,2.20
2023-02-15T09:17:57.092Z,2.30
2023-02-15T09:20:25.490Z,2.30
2023-02-15T09:22:57.655Z,2.30
2023-02-15T09:25:29.341Z,2.30
2023-02-15T09:27:58.399Z,2.30
2023-02-15T09:30:27.446Z,2.30
2023-02-15T09:32:56.614Z,2.20
2023-02-15T09:35:25.463Z,2.10
2023-02-15T09:37:55.618Z,2.10
2023-02-15T09:40:25.630Z,2.20
2023-02-15T09:43:19.189Z,2.20
2023-02-15T09:46:10.617Z,2.30
2023-02-15T09:48:43.780Z,2.30
2023-02-15T09:51:33.534Z,2.30
2023-02-15T09:54:18.759Z,2.40
2023-02-15T09:56:52.407Z,2.40
2023-02-15T09:59:30.372Z,2.50
2023-02-15T10:02:10.251Z,2.60
2023-02-15T10:04:53.156Z,2.60
2023-02-15T10:07:38.206Z,2.60
2023-02-15T10:10:19.789Z,2.60
2023-02-15T10:13:10.748Z,2.60
2023-02-15T10:15:53.079Z,2.60
2023-02-15T10:18:34.288Z,2.60
2023-02-15T10:21:11.109Z,2.60
2023-02-15T10:23:55.578Z,2.70
2023-02-15T10:26:30.542Z,2.60
2023-02-15T10:29:04.785Z,2.60
2023-02-15T10:31:40.019Z,2.70
2023-02-15T10:34:19.712Z,2.60
2023-02-15T10:37:25.157Z,2.50
2023-02-15T10:40:03.711Z,2.60
2023-02-15T10:42:52.088Z,2.70
2023-02-15T10:45:28.594Z,2.80
2023-02-15T10:48:24.257Z,3.00
2023-02-15T10:50:54.974Z,3.10
2023-02-15T10:53:47.088Z,3.30
2023-02-15T10:56:22.322Z,3.40
2023-02-15T10:59:08.358Z,3.50
2023-02-15T11:01:43.120Z,3.60
2023-02-15T11:04:41.036Z,3.80
2023-02-15T11:07:18.736Z,3.90
2023-02-15T11:09:50.777Z,4.00
2023-02-15T11:12:23.178Z,4.20
2023-02-15T11:15:00.659Z,4.20
2023-02-15T11:17:35.669Z,4.40
2023-02-15T11:20:11.797Z,4.50
2023-02-15T11:22:41.188Z,4.60
2023-02-15T11:25:20.419Z,4.60
2023-02-15T11:27:51.420Z,4.60
2023-02-15T11:30:27.267Z,4.50
2023-02-15T11:32:58.477Z,4.30
2023-02-15T11:35:31.589Z,4.30
2023-02-15T11:38:08.230Z,4.20
2023-02-15T11:40:43.361Z,4.20
2023-02-15T11:43:18.912Z,4.30
2023-02-15T11:45:48.674Z,4.40
2023-02-15T11:48:18.885Z,4.50
2023-02-15T11:50:47.570Z,4.60
2023-02-15T11:53:18.200Z,4.70
2023-02-15T11:55:47.937Z,4.70
2023-02-15T11:58:29.161Z,4.80
2023-02-15T12:01:04.992Z,4.90
2023-02-15T12:03:45.816Z,5.00
2023-02-15T12:06:27.351Z,5.10
2023-02-15T12:09:03.314Z,5.00
2023-02-15T12:11:39.159Z,4.90
2023-02-15T12:14:09.323Z,4.90
2023-02-15T12:16:46.770Z,4.90
2023-02-15T12:19:33.299Z,4.90
2023-02-15T12:22:04.329Z,4.90
2023-02-15T12:24:36.920Z,5.00
2023-02-15T12:27:08.037Z,5.00
2023-02-15T12:29:44.119Z,5.00
2023-02-15T12:32:20.974Z,5.00
2023-02-15T12:34:51.345Z,5.00
2023-02-15T12:37:23.608Z,5.10
2023-02-15T12:39:57.944Z,5.10
2023-02-15T12:42:27.743Z,5.20
2023-02-15T12:44:59.471Z,5.20
2023-02-15T12:47:31.089Z,5.30
2023-02-15T12:50:18.811Z,5.40
2023-02-15T12:52:49.651Z,5.60
2023-02-15T12:55:24.970Z,5.70
2023-02-15T12:58:11.032Z,5.80
2023-02-15T13:00:39.632Z,5.90
2023-02-15T13:03:20.252Z,6.00
2023-02-15T13:05:52.606Z,6.10
2023-02-15T13:08:23.009Z,6.10
2023-02-15T13:10:58.447Z,6.00
2023-02-15T13:13:29.864Z,6.00
2023-02-15T13:16:03.000Z,6.00
2023-02-15T13:18:36.367Z,6.00
2023-02-15T13:21:13.073Z,6.00
2023-02-15T13:23:46.817Z,5.90
2023-02-15T13:26:19.818Z,5.70
2023-02-15T13:28:50.587Z,5.60
2023-02-15T13:31:21.307Z,5.40
2023-02-15T13:33:54.514Z,5.40
2023-02-15T13:36:29.307Z,5.10
2023-02-15T13:39:09.357Z,5.00
2023-02-15T13:41:50.987Z,5.00
2023-02-15T13:44:31.606Z,5.10
2023-02-15T13:47:12.616Z,5.20
2023-02-15T13:49:53.043Z,5.30
2023-02-15T13:52:23.748Z,5.40
2023-02-15T13:55:08.733Z,5.50
2023-02-15T13:57:51.252Z,5.60
2023-02-15T14:00:28.196Z,5.70
2023-02-15T14:03:14.246Z,5.80
2023-02-15T14:05:59.301Z,5.80
2023-02-15T14:08:40.475Z,5.90
2023-02-15T14:11:18.020Z,6.00
2023-02-15T14:14:12.983Z,6.10
2023-02-15T14:17:04.550Z,6.20
2023-02-15T14:19:42.313Z,6.30
2023-02-15T14:22:22.797Z,6.30
2023-02-15T14:25:04.588Z,6.30
2023-02-15T14:27:45.546Z,6.20
2023-02-15T14:30:20.462Z,6.10
2023-02-15T14:32:51.626Z,5.90
2023-02-15T14:35:22.612Z,5.80
2023-02-15T14:37:57.458Z,5.80
2023-02-15T14:40:53.201Z,5.70
2023-02-15T14:43:32.519Z,5.70
2023-02-15T14:46:09.839Z,5.60
2023-02-15T14:48:43.632Z,5.50
2023-02-15T14:51:12.541Z,5.50
2023-02-15T14:53:43.201Z,5.50
2023-02-15T14:56:23.942Z,5.50
2023-02-15T14:59:02.467Z,5.50
2023-02-15T15:01:33.524Z,5.60
2023-02-15T15:04:06.531Z,5.60
2023-02-15T15:06:37.338Z,5.60
2023-02-15T15:09:14.399Z,5.50
2023-02-15T15:11:46.595Z,5.40
2023-02-15T15:14:39.777Z,5.30
2023-02-15T15:17:11.736Z,5.30
2023-02-15T15:20:32.802Z,5.20
2023-02-15T15:23:41.575Z,5.20
2023-02-15T15:26:26.560Z,5.10
2023-02-15T15:29:02.499Z,5.10
2023-02-15T15:31:41.499Z,5.10
2023-02-15T15:34:35.128Z,5.00
2023-02-15T15:37:27.744Z,5.00
2023-02-15T15:40:24.751Z,4.90
2023-02-15T15:43:14.053Z,4.90
2023-02-15T15:46:09.856Z,4.80
2023-02-15T15:48:40.007Z,4.70
2023-02-15T15:51:14.798Z,4.60
2023-02-15T15:53:49.425Z,4.60
2023-02-15T15:56:20.764Z,4.50
2023-02-15T15:58:54.456Z,4.40
2023-02-15T16:01:29.507Z,4.20
2023-02-15T16:03:59.929Z,4.10
2023-02-15T16:06:33.159Z,4.00
2023-02-15T16:09:18.391Z,3.90
2023-02-15T16:11:48.766Z,3.80
2023-02-15T16:14:24.157Z,3.70
2023-02-15T16:16:55.883Z,3.70
2023-02-15T16:19:28.599Z,3.60
2023-02-15T16:21:59.832Z,3.50
2023-02-15T16:24:44.516Z,3.40
2023-02-15T16:27:22.900Z,3.40
2023-02-15T16:29:53.255Z,3.30
2023-02-15T16:32:24.226Z,3.30
2023-02-15T16:34:57.664Z,3.30
2023-02-15T16:37:28.348Z,3.30
2023-02-15T16:39:57.451Z,3.30
2023-02-15T16:42:26.544Z,3.20
2023-02-15T16:44:59.165Z,3.20
2023-02-15T16:47:30.608Z,3.20
2023-02-15T16:50:03.107Z,3.20
2023-02-15T16:52:31.847Z,3.10
2023-02-15T16:55:02.298Z,3.10
2023-02-15T16:57:34.842Z,3.00
2023-02-15T17:00:07.456Z,2.90
2023-02-15T17:02:54.998Z,2.90
2023-02-15T17:05:24.655Z,2.80
2023-02-15T17:08:06.791Z,2.70
2023-02-15T17:10:37.746Z,2.70
2023-02-15T17:13:12.942Z,2.70
2023-02-15T17:15:44.341Z,2.60
2023-02-15T17:18:18.894Z,2.60
2023-02-15T17:20:48.789Z,2.60
2023-02-15T17:23:30.865Z,2.50
2023-02-15T17:26:00.112Z,2.50
2023-02-15T17:28:32.273Z,2.50
2023-02-15T17:31:08.133Z,2.50
2023-02-15T17:33:40.480Z,2.50
2023-02-15T17:36:14.779Z,2.40
2023-02-15T17:39:03.390Z,2.40
2023-02-15T17:41:33.731Z,2.40
2023-02-15T17:44:03.781Z,2.50
2023-02-15T17:46:36.588Z,2.50
2023-02-15T17:49:05.529Z,2.50
2023-02-15T17:51:36.560Z,2.50
2023-02-15T17:54:33.812Z,2.50
2023-02-15T17:57:05.862Z,2.50
2023-02-15T17:59:34.176Z,2.40
2023-02-15T18:02:30.667Z,2.40
2023-02-15T18:05:17.641Z,2.30
2023-02-15T18:08:04.843Z,2.30
2023-02-15T18:10:50.851Z,2.20
2023-02-15T18:13:19.073Z,2.20
2023-02-15T18:15:47.639Z,2.20
2023-02-15T18:18:17.414Z,2.10
2023-02-15T18:20:45.652Z,2.10
2023-02-15T18:23:16.051Z,2.00
2023-02-15T18:25:44.288Z,2.00
2023-02-15T18:28:14.286Z,2.00
2023-02-15T18:30:43.922Z,2.00
2023-02-15T18:33:27.073Z,2.00
2023-02-15T18:35:55.671Z,2.00
2023-02-15T18:38:24.048Z,2.00
2023-02-15T18:40:52.438Z,2.00
2023-02-15T18:43:21.052Z,2.00
2023-02-15T18:45:50.608Z,2.00
2023-02-15T18:48:21.469Z,1.90
2023-02-15T18:50:50.403Z,1.80
2023-02-15T18:53:21.437Z,1.70
2023-02-15T18:55:50.086Z,1.70
2023-02-15T18:58:20.671Z,1.60
2023-02-15T19:00:50.114Z,1.70
2023-02-15T19:03:20.905Z,1.60
2023-02-15T19:05:49.626Z,1.60
2023-02-15T19:08:22.040Z,1.60
2023-02-15T19:10:50.503Z,1.60
2023-02-15T19:13:19.059Z,1.60
2023-02-15T19:15:48.146Z,1.60
2023-02-15T19:18:16.999Z,1.60
2023-02-15T19:20:48.593Z,1.70
2023-02-15T19:23:22.074Z,1.70
2023-02-15T19:25:51.593Z,1.80
2023-02-15T19:28:25.065Z,1.80
2023-02-15T19:30:53.611Z,1.90
2023-02-15T19:33:23.739Z,1.90
2023-02-15T19:35:57.660Z,1.90
2023-02-15T19:38:29.656Z,2.00
2023-02-15T19:41:04.194Z,2.00
2023-02-15T19:43:32.611Z,1.90
2023-02-15T19:46:02.615Z,2.00
2023-02-15T19:48:31.541Z,1.90
2023-02-15T19:51:02.526Z,2.00
2023-02-15T19:53:31.828Z,2.00
2023-02-15T19:56:01.268Z,2.00
2023-02-15T19:58:30.276Z,2.00
2023-02-15T20:00:59.226Z,2.00
2023-02-15T20:03:29.702Z,1.90
2023-02-15T20:05:59.041Z,2.00
2023-02-15T20:08:30.837Z,1.90
2023-02-15T20:11:00.225Z,1.90
2023-02-15T20:13:31.286Z,1.90
2023-02-15T20:16:01.642Z,1.90
2023-02-15T20:18:30.416Z,1.90
2023-02-15T20:20:59.502Z,1.90
2023-02-15T20:23:32.242Z,1.90
2023-02-15T20:26:05.420Z,1.80
2023-02-15T20:28:35.038Z,1.80
2023-02-15T20:31:06.284Z,1.90
2023-02-15T20:33:37.027Z,1.90
2023-02-15T20:36:06.347Z,1.80
2023-02-15T20:38:36.884Z,1.80
2023-02-15T20:41:23.161Z,1.80
2023-02-15T20:43:52.639Z,1.80
2023-02-15T20:46:21.787Z,1.70
2023-02-15T20:48:51.824Z,1.70
2023-02-15T20:51:23.536Z,1.70
2023-02-15T20:53:53.803Z,1.60
2023-02-15T20:56:24.334Z,1.60
2023-02-15T20:58:54.023Z,1.60
2023-02-15T21:01:23.133Z,1.60
2023-02-15T21:03:52.313Z,1.60
2023-02-15T21:06:21.914Z,1.60
2023-02-15T21:08:51.477Z,1.60
2023-02-15T21:11:24.318Z,1.60
2023-02-15T21:13:53.499Z,1.60
2023-02-15T21:16:22.516Z,1.60
2023-02-15T21:18:51.408Z,1.50
2023-02-15T21:21:24.358Z,1.50
2023-02-15T21:23:53.923Z,1.50
2023-02-15T21:26:24.409Z,1.50
2023-02-15T21:28:52.873Z,1.50
2023-02-15T21:31:23.400Z,1.50
2023-02-15T21:33:52.165Z,1.50
2023-02-15T21:36:22.994Z,1.40
2023-02-15T21:38:53.672Z,1.40
2023-02-15T21:41:42.648Z,1.40
2023-02-15T21:44:34.657Z,1.40
2023-02-15T21:47:20.419Z,1.40
2023-02-15T21:49:48.768Z,1.40
2023-02-15T21:52:20.000Z,1.40
2023-02-15T21:54:48.963Z,1.30
2023-02-15T21:57:22.151Z,1.30
2023-02-15T21:59:50.634Z,1.20
2023-02-15T22:02:28.922Z,1.20
2023-02-15T22:04:57.303Z,1.20
2023-02-15T22:07:25.579Z,1.20
2023-02-15T22:09:54.348Z,1.20
2023-02-15T22:12:24.236Z,1.20
2023-02-15T22:14:54.504Z,1.20
2023-02-15T22:17:24.967Z,1.20
2023-02-15T22:19:54.079Z,1.20
2023-02-15T22:22:22.671Z,1.20
2023-02-15T22:24:51.110Z,1.20
2023-02-15T22:27:25.549Z,1.20
2023-02-15T22:29:56.197Z,1.20
2023-02-15T22:32:26.678Z,1.20
2023-02-15T22:34:55.622Z,1.10
2023-02-15T22:37:23.790Z,1.10
2023-02-15T22:39:51.968Z,1.00
2023-02-15T22:42:25.738Z,1.00
2023-02-15T22:44:57.289Z,1.00
2023-02-15T22:47:27.596Z,0.90
2023-02-15T22:49:56.297Z,0.90
2023-02-15T22:52:25.378Z,0.90
2023-02-15T22:54:53.614Z,0.90
2023-02-15T22:57:29.061Z,0.80
2023-02-15T22:59:59.422Z,0.80
2023-02-15T23:02:27.865Z,0.80
2023-02-15T23:04:56.285Z,0.80
2023-02-15T23:07:24.758Z,0.80
2023-02-15T23:09:53.098Z,0.80
2023-02-15T23:12:26.029Z,0.80
2023-02-15T23:14:55.012Z,0.90
2023-02-15T23:17:24.638Z,0.90
2023-02-15T23:19:52.827Z,0.80
2023-02-15T23:22:21.281Z,0.80
2023-02-15T23:24:53.330Z,0.80
2023-02-15T23:27:39.455Z,0.80
2023-02-15T23:30:14.075Z,0.80
2023-02-15T23:32:44.016Z,0.80
2023-02-15T23:35:16.332Z,0.70
2023-02-15T23:37:45.108Z,0.60
2023-02-15T23:40:34.022Z,0.60
2023-02-15T23:43:02.671Z,0.60
2023-02-15T23:45:34.694Z,0.60
2023-02-15T23:48:22.434Z,0.50
2023-02-15T23:50:51.020Z,0.50
2023-02-15T23:53:19.718Z,0.40
2023-02-15T23:55:48.600Z,0.40
2023-02-15T23:58:20.183Z,0.30
